Ana Sayfa
METAR-TAF:

METAR-TAF

Havaalanları :

Kasuminome, Japonya

Enlem: 38-14N, Boylam: 140-55E, yükseklik: 7 m

Güncel hava durumu gözlemi

Rapor saat 23:38 UTC de 43 dakika önce yapıldı.
Rüzgar kuzey/kuzeybatıdan 10 kt
Sıcaklık 3°C
Nem 93%
Basınç 1012 hPa
Görüş mesafesi: 4000 m
500 ft yükseklikte az bulutlu
800 ft yükseklikte parçalı bulutlu
3000 ft yükseklikte parçalı çok bulutlu
hafif sağanak yağmurlar, kar, Pus

METAR: RJSU 292338Z 34010KT 4000 -SHRASN BR FEW005 SCT008 BKN030 03/02 Q1012 RMK 1ST005 3ST008 5CU030 A2991

Saat: 09:21 (00:21 UTC)


TAF: eksik

4.000'den fazla havaalanı için hava durumu gözlemleri ve tahminleri (METAR ve TAF raporları).

Kullanılabilir istasyonlar harita üzerinde sarı ve kırmızı noktalarla gösterilir.

İstasyonun adını görmek için fareyi noktanın üzerinde gezdirin.

Sonrasında hava gözlem ve tahminlerini görmek için tıklayın.

Haritayı değiştirmek için: yaklaştırmak için siyah artı işaretli yeşil düğmeye ve uzaklaştırmak için de eksi işaretli düğmeye hızla tıklayın; bitişik haritalar için yeşil okları kullanın.


METAR-TAF: